Time;durP1;ratioP1;P1;durP2;ratioP2;P2;SDS_P1;SDS_P2;PMS_P1;PMS_P2;Temp;Humidity;BMP_temperature;BMP_pressure;BME280_temperature;BME280_humidity;BME280_pressure;Samples;Min_cycle;Max_cycle;Signal;HPM_P1;HPM_P2
2022/06/26 00:00:01;;;;;;;5.30;4.70;;;;;;;20.89;51.38;100344.49;117413;1185;21858;-52
2022/06/26 00:02:28;;;;;;;7.20;5.10;;;;;;;20.84;51.58;100340.44;117377;1182;23623;-55
2022/06/26 00:04:55;;;;;;;5.60;5.00;;;;;;;20.80;51.64;100337.29;117340;1181;22902;-51
2022/06/26 00:07:22;;;;;;;6.10;5.50;;;;;;;20.76;51.60;100338.88;117470;1184;23624;-55
2022/06/26 00:09:49;;;;;;;7.20;5.40;;;;;;;20.73;51.69;100345.52;117421;1185;21848;-53
2022/06/26 00:12:16;;;;;;;5.60;5.00;;;;;;;20.66;51.79;100348.73;117357;1181;23640;-55
2022/06/26 00:14:43;;;;;;;7.90;5.50;;;;;;;20.58;51.80;100352.21;117361;1181;22915;-52
2022/06/26 00:17:10;;;;;;;6.10;5.30;;;;;;;20.48;51.92;100357.17;117403;1182;24164;-55
2022/06/26 00:19:37;;;;;;;7.00;5.50;;;;;;;20.40;52.18;100358.50;117517;1185;22939;-54
2022/06/26 00:22:06;;;;;;;8.40;5.60;;;;;;;20.26;52.27;100361.55;117475;1185;22913;-55
2022/06/26 00:24:33;;;;;;;9.10;5.00;;;;;;;20.19;52.47;100359.81;117457;1183;21866;-55
2022/06/26 00:27:02;;;;;;;7.90;5.30;;;;;;;20.08;52.90;100364.27;117455;1183;23542;-55
2022/06/26 00:29:30;;;;;;;5.50;4.60;;;;;;;19.97;52.90;100366.27;117346;1188;21858;-51
2022/06/26 00:31:57;;;;;;;8.90;5.80;;;;;;;19.89;53.50;100368.08;117413;1182;23167;-54
2022/06/26 00:34:25;;;;;;;6.50;5.60;;;;;;;19.86;53.23;100372.16;117402;1181;23640;-54
2022/06/26 00:36:52;;;;;;;7.10;6.40;;;;;;;19.82;53.15;100373.25;117076;1183;22916;-54
2022/06/26 00:39:19;;;;;;;7.50;6.10;;;;;;;19.81;53.14;100374.02;117405;1186;22905;-51
2022/06/26 00:41:46;;;;;;;7.50;5.90;;;;;;;19.82;53.18;100369.85;117331;1185;24763;-51
2022/06/26 00:44:19;;;;;;;6.40;5.80;;;;;;;19.83;53.13;100367.88;117256;1186;21961;-55
2022/06/26 00:46:46;;;;;;;6.80;5.80;;;;;;;19.77;53.19;100369.74;117372;1180;22958;-54
2022/06/26 00:49:13;;;;;;;7.20;5.60;;;;;;;19.72;53.15;100370.34;117352;1183;21852;-52
2022/06/26 00:51:45;;;;;;;7.30;6.00;;;;;;;19.66;53.34;100370.84;117391;1185;24215;-51
2022/06/26 00:54:12;;;;;;;6.00;5.20;;;;;;;19.65;53.43;100373.23;117278;1185;22896;-55
2022/06/26 00:56:39;;;;;;;6.30;5.50;;;;;;;19.66;53.47;100372.44;117326;1183;24168;-51
2022/06/26 00:59:06;;;;;;;12.10;6.00;;;;;;;19.77;53.29;100375.47;117319;1182;22988;-55
2022/06/26 01:01:34;;;;;;;5.90;5.30;;;;;;;19.75;53.36;100373.59;117379;1186;24157;-54
2022/06/26 01:04:02;;;;;;;6.60;5.50;;;;;;;19.71;53.43;100373.24;117338;1182;21850;-55
2022/06/26 01:06:29;;;;;;;7.30;5.70;;;;;;;19.67;53.57;100371.50;117362;1185;22915;-51
2022/06/26 01:08:56;;;;;;;7.50;5.60;;;;;;;19.69;53.54;100369.80;117331;1183;22802;-51
2022/06/26 01:11:25;;;;;;;9.80;6.40;;;;;;;19.71;53.58;100370.96;117093;1185;21841;-51
2022/06/26 01:13:54;;;;;;;9.00;5.90;;;;;;;19.70;53.69;100370.10;117418;1182;24279;-55
2022/06/26 01:16:22;;;;;;;7.10;6.10;;;;;;;19.69;53.73;100369.96;117221;1186;21905;-51
2022/06/26 01:18:51;;;;;;;8.90;6.60;;;;;;;19.60;54.04;100364.91;117413;1182;24171;-51
2022/06/26 01:21:17;;;;;;;6.90;6.00;;;;;;;19.58;54.23;100369.63;117297;1182;23627;-51
2022/06/26 01:23:46;;;;;;;7.80;6.10;;;;;;;19.60;54.15;100366.87;117429;1185;23721;-51
2022/06/26 01:26:13;;;;;;;7.00;6.00;;;;;;;19.51;54.46;100372.11;117340;1183;22915;-54
2022/06/26 01:28:40;;;;;;;8.80;6.90;;;;;;;19.44;54.66;100369.09;117295;1182;24160;-51
2022/06/26 01:31:07;;;;;;;8.00;6.40;;;;;;;19.42;54.75;100368.30;117270;1184;22167;-52
2022/06/26 01:33:37;;;;;;;7.60;6.40;;;;;;;19.43;54.81;100367.35;117365;1182;21847;-54
2022/06/26 01:36:05;;;;;;;8.40;6.10;;;;;;;19.43;54.97;100369.84;117327;1185;21847;-51
2022/06/26 01:38:32;;;;;;;7.00;6.20;;;;;;;19.41;54.98;100368.16;117391;1182;22967;-52
2022/06/26 01:40:59;;;;;;;10.30;6.50;;;;;;;19.40;55.20;100374.43;117360;1185;22915;-51
2022/06/26 01:43:28;;;;;;;7.10;6.30;;;;;;;19.37;55.13;100374.23;117379;1183;22720;-56
2022/06/26 01:45:56;;;;;;;7.50;6.10;;;;;;;19.35;55.34;100377.92;117418;1184;21887;-51
2022/06/26 01:48:24;;;;;;;11.00;6.60;;;;;;;19.32;55.44;100376.23;117404;1183;22943;-51
2022/06/26 01:50:52;;;;;;;8.70;6.80;;;;;;;19.36;55.38;100379.09;117474;1185;21854;-55
2022/06/26 01:53:19;;;;;;;7.50;6.60;;;;;;;19.39;55.30;100379.09;117387;1185;22967;-55
2022/06/26 01:55:46;;;;;;;10.80;6.60;;;;;;;19.38;55.68;100382.00;117426;1182;24157;-56
2022/06/26 01:58:14;;;;;;;7.80;6.30;;;;;;;19.40;55.57;100384.24;117387;1182;23621;-52
2022/06/26 02:00:43;;;;;;;7.70;6.90;;;;;;;19.37;55.71;100386.15;117505;1182;23625;-56
2022/06/26 02:03:10;;;;;;;8.60;6.70;;;;;;;19.35;55.67;100383.94;117355;1182;23462;-55
2022/06/26 02:05:37;;;;;;;8.70;6.70;;;;;;;19.38;55.61;100385.55;117366;1184;21849;-56
2022/06/26 02:08:04;;;;;;;8.00;6.30;;;;;;;19.40;55.81;100390.11;117380;1182;23535;-55
2022/06/26 02:13:36;;;;;;;7.90;6.90;;;;;;;19.39;55.97;100388.72;117384;1176;22928;-51
2022/06/26 02:16:13;;;;;;;7.00;6.20;;;;;;;19.38;56.15;100389.50;117412;1188;21849;-51
2022/06/26 02:18:42;;;;;;;7.70;6.40;;;;;;;19.35;56.29;100390.54;117415;1184;23563;-55
2022/06/26 02:21:11;;;;;;;7.60;6.80;;;;;;;19.33;56.10;100392.39;117384;1180;23637;-51
2022/06/26 02:23:38;;;;;;;7.50;6.30;;;;;;;19.35;56.03;100397.09;117385;1182;23813;-55
2022/06/26 02:26:07;;;;;;;10.70;6.80;;;;;;;19.45;56.03;100403.00;117396;1182;21848;-51
2022/06/26 02:28:36;;;;;;;8.90;5.80;;;;;;;19.44;55.89;100400.21;117362;1182;23465;-53
2022/06/26 02:31:03;;;;;;;9.60;6.60;;;;;;;19.48;55.94;100403.94;117279;1184;23541;-51
2022/06/26 02:33:32;;;;;;;7.20;6.10;;;;;;;19.51;56.01;100402.04;117346;1184;21891;-51
2022/06/26 02:35:59;;;;;;;8.30;6.40;;;;;;;19.52;56.12;100402.31;118332;1184;22091;-52
2022/06/26 02:38:26;;;;;;;7.00;6.30;;;;;;;19.54;56.22;100401.87;117314;1182;21965;-53
2022/06/26 02:40:53;;;;;;;8.80;6.70;;;;;;;19.55;56.18;100402.34;117389;1183;22931;-55
2022/06/26 02:43:23;;;;;;;7.00;6.20;;;;;;;19.53;56.47;100409.56;117382;1183;22985;-52
2022/06/26 02:45:51;;;;;;;8.60;6.30;;;;;;;19.63;56.29;100413.36;117377;1183;24164;-52
2022/06/26 02:48:19;;;;;;;7.40;6.60;;;;;;;19.69;56.46;100409.84;117350;1180;21861;-56
2022/06/26 02:50:47;;;;;;;10.80;7.00;;;;;;;19.73;56.72;100410.55;117450;1182;24811;-56
2022/06/26 02:53:14;;;;;;;8.20;6.50;;;;;;;19.78;56.41;100409.59;117455;1183;23443;-53
2022/06/26 02:55:42;;;;;;;10.60;7.50;;;;;;;19.86;56.51;100414.34;117395;1183;22838;-52
2022/06/26 02:58:09;;;;;;;17.20;7.10;;;;;;;19.99;56.65;100414.29;117357;1186;21837;-52
2022/06/26 03:00:36;;;;;;;10.90;7.40;;;;;;;20.06;56.47;100409.47;117350;1182;23449;-56
2022/06/26 03:03:03;;;;;;;10.70;6.50;;;;;;;20.04;56.33;100410.64;117427;1182;22918;-57
2022/06/26 03:05:30;;;;;;;8.80;6.90;;;;;;;20.05;56.66;100416.95;117335;1185;22990;-52
2022/06/26 03:07:58;;;;;;;11.20;6.80;;;;;;;20.11;56.65;100419.53;117510;1182;22365;-53
2022/06/26 03:10:24;;;;;;;10.80;7.10;;;;;;;20.16;56.70;100417.50;117262;1182;23429;-56
2022/06/26 03:12:51;;;;;;;8.40;6.80;;;;;;;20.21;56.78;100415.98;117400;1185;23606;-56
2022/06/26 03:15:19;;;;;;;8.00;6.90;;;;;;;20.26;57.05;100417.00;117292;1183;24164;-56
2022/06/26 03:17:48;;;;;;;7.40;6.50;;;;;;;20.32;57.07;100415.21;117399;1182;23631;-55
2022/06/26 03:20:18;;;;;;;8.60;6.90;;;;;;;20.39;57.10;100417.91;117360;1182;22932;-51
2022/06/26 03:22:46;;;;;;;7.40;6.60;;;;;;;20.45;56.86;100421.34;117377;1183;21963;-53
2022/06/26 03:25:14;;;;;;;8.00;6.90;;;;;;;20.51;56.90;100422.61;117385;1184;21850;-52
2022/06/26 03:27:44;;;;;;;8.20;6.20;;;;;;;20.57;56.97;100424.42;117276;1184;21854;-52
2022/06/26 03:30:11;;;;;;;9.50;6.80;;;;;;;20.63;57.00;100428.59;117347;1184;21929;-53
2022/06/26 03:32:38;;;;;;;8.60;7.20;;;;;;;20.69;57.08;100426.67;117294;1182;22815;-51
2022/06/26 03:35:06;;;;;;;9.00;6.40;;;;;;;20.75;57.08;100425.98;117320;1182;22913;-51
2022/06/26 03:37:33;;;;;;;7.60;6.60;;;;;;;20.82;57.10;100424.23;117360;1182;22625;-52
2022/06/26 03:40:01;;;;;;;7.40;6.20;;;;;;;20.86;57.03;100421.86;117419;1184;23198;-55
2022/06/26 03:42:28;;;;;;;9.10;6.10;;;;;;;20.90;57.05;100418.58;117396;1183;21879;-52
2022/06/26 03:44:55;;;;;;;7.10;6.20;;;;;;;20.97;57.03;100417.73;117297;1183;23554;-55
2022/06/26 03:47:22;;;;;;;8.10;6.60;;;;;;;21.02;56.92;100418.30;117338;1183;23461;-55
2022/06/26 03:49:52;;;;;;;6.90;6.20;;;;;;;21.06;57.07;100421.60;117390;1182;22915;-53
2022/06/26 03:52:23;;;;;;;7.80;5.70;;;;;;;21.11;56.90;100425.10;117377;1182;23563;-55
2022/06/26 03:54:51;;;;;;;7.00;5.80;;;;;;;21.17;57.13;100422.27;117458;1182;22927;-55
2022/06/26 03:57:18;;;;;;;8.90;6.30;;;;;;;21.23;56.89;100421.95;117450;1186;21856;-52
2022/06/26 03:59:51;;;;;;;7.20;6.10;;;;;;;21.29;57.02;100416.07;117443;1186;23586;-53
2022/06/26 04:02:18;;;;;;;7.30;5.80;;;;;;;21.36;56.97;100420.48;117455;1182;24132;-53
2022/06/26 04:04:45;;;;;;;8.40;6.00;;;;;;;21.44;57.00;100427.55;117406;1186;21852;-55
2022/06/26 04:07:12;;;;;;;13.00;6.00;;;;;;;21.51;56.94;100434.66;117432;1182;23433;-55
2022/06/26 04:09:40;;;;;;;8.10;5.80;;;;;;;21.58;57.13;100434.81;117439;1182;21863;-54
2022/06/26 04:12:07;;;;;;;10.30;5.40;;;;;;;21.68;56.80;100439.45;117502;1182;22911;-55
2022/06/26 04:14:34;;;;;;;7.40;5.60;;;;;;;21.79;56.65;100438.63;117356;1182;21851;-55
2022/06/26 04:17:01;;;;;;;7.10;6.10;;;;;;;21.89;56.69;100439.81;117429;1185;21880;-55
2022/06/26 04:19:28;;;;;;;6.20;5.50;;;;;;;22.00;56.76;100434.54;117389;1184;22925;-55
2022/06/26 04:21:56;;;;;;;7.00;6.10;;;;;;;22.05;56.69;100433.20;117327;1184;22869;-55
2022/06/26 04:24:23;;;;;;;6.90;5.40;;;;;;;22.07;56.71;100434.50;117397;1181;23532;-55
2022/06/26 04:26:50;;;;;;;7.30;6.20;;;;;;;22.18;56.67;100440.84;117373;1184;22643;-52
2022/06/26 04:29:17;;;;;;;6.80;6.00;;;;;;;22.31;56.55;100442.52;117385;1182;24156;-53
2022/06/26 04:31:44;;;;;;;9.10;5.80;;;;;;;22.42;56.50;100440.30;117291;1186;23557;-55
2022/06/26 04:34:11;;;;;;;8.90;5.90;;;;;;;22.52;56.26;100435.73;117355;1189;21896;-53
2022/06/26 04:36:39;;;;;;;9.20;6.40;;;;;;;22.62;56.22;100433.36;117327;1182;22918;-56
2022/06/26 04:39:06;;;;;;;7.60;5.70;;;;;;;22.69;56.16;100434.86;117305;1180;21849;-52
2022/06/26 04:41:35;;;;;;;7.60;5.70;;;;;;;22.77;56.17;100436.17;117316;1182;22958;-55
2022/06/26 04:44:08;;;;;;;5.50;5.00;;;;;;;22.86;56.05;100436.69;117331;1182;23557;-53
2022/06/26 04:46:36;;;;;;;9.40;6.00;;;;;;;22.97;56.09;100440.45;117338;1185;22915;-53
2022/06/26 04:49:03;;;;;;;8.70;5.70;;;;;;;23.10;56.19;100441.23;117329;1183;24142;-53
2022/06/26 04:51:30;;;;;;;7.30;5.40;;;;;;;23.24;56.09;100439.33;117408;1186;23005;-55
2022/06/26 04:53:57;;;;;;;10.60;5.70;;;;;;;23.36;56.06;100444.13;117366;1183;24223;-53
2022/06/26 04:56:24;;;;;;;7.70;6.10;;;;;;;23.48;56.00;100440.98;117389;1185;22915;-53
2022/06/26 04:58:52;;;;;;;6.70;5.40;;;;;;;23.70;55.95;100437.45;117351;1183;23434;-53
2022/06/26 05:01:20;;;;;;;6.00;4.90;;;;;;;23.88;55.58;100437.84;117355;1180;22926;-54
2022/06/26 05:03:47;;;;;;;8.10;5.60;;;;;;;23.96;55.31;100435.02;117439;1183;22983;-53
2022/06/26 05:06:14;;;;;;;7.50;5.50;;;;;;;24.00;55.22;100434.20;117372;1185;22963;-53
2022/06/26 05:08:41;;;;;;;6.20;5.30;;;;;;;24.04;55.09;100436.77;117297;1182;22915;-53
2022/06/26 05:11:08;;;;;;;6.20;5.40;;;;;;;24.09;54.81;100435.91;117364;1182;23624;-53
2022/06/26 05:13:35;;;;;;;6.80;5.10;;;;;;;24.14;55.03;100441.30;117320;1186;22913;-55
2022/06/26 05:16:02;;;;;;;6.10;5.20;;;;;;;24.22;55.15;100442.96;117386;1180;22919;-53
2022/06/26 05:18:30;;;;;;;7.20;5.40;;;;;;;24.27;54.99;100437.96;117403;1181;21846;-54
2022/06/26 05:20:57;;;;;;;12.50;6.40;;;;;;;24.30;54.87;100432.88;117329;1180;23024;-53
2022/06/26 05:23:25;;;;;;;7.80;5.30;;;;;;;24.35;54.90;100426.45;117178;1185;22915;-56
2022/06/26 05:25:52;;;;;;;7.10;5.20;;;;;;;24.43;54.91;100427.70;117332;1182;24161;-53
2022/06/26 05:28:19;;;;;;;7.80;5.10;;;;;;;24.52;54.63;100427.27;117265;1182;23541;-54
2022/06/26 05:30:46;;;;;;;5.80;5.20;;;;;;;24.60;54.53;100429.94;117334;1185;22954;-54
2022/06/26 05:33:13;;;;;;;5.70;4.90;;;;;;;24.67;54.54;100437.66;117413;1177;23631;-57
2022/06/26 05:35:40;;;;;;;5.60;4.40;;;;;;;24.77;54.63;100441.12;117321;1186;21872;-56
2022/06/26 05:38:07;;;;;;;6.30;4.40;;;;;;;24.87;54.35;100440.39;117356;1186;22430;-55
2022/06/26 05:40:34;;;;;;;6.50;4.90;;;;;;;24.97;54.33;100439.49;118627;1182;23452;-56
2022/06/26 05:43:01;;;;;;;5.20;4.70;;;;;;;25.06;54.36;100438.34;117429;1185;23285;-54
2022/06/26 05:45:29;;;;;;;5.00;4.40;;;;;;;25.16;54.18;100436.52;117400;1182;22885;-54
2022/06/26 05:47:56;;;;;;;5.60;4.40;;;;;;;25.25;54.01;100435.91;117508;1182;24694;-54
2022/06/26 05:50:23;;;;;;;5.60;4.20;;;;;;;25.33;54.06;100436.41;117398;1186;22081;-56
2022/06/26 05:52:50;;;;;;;5.10;4.40;;;;;;;25.42;53.90;100438.66;117441;1185;22018;-54
2022/06/26 05:55:19;;;;;;;7.90;4.70;;;;;;;25.47;53.62;100441.71;117516;1182;23541;-54
2022/06/26 05:57:49;;;;;;;7.00;5.60;;;;;;;25.50;53.79;100442.69;117478;1185;23452;-56
2022/06/26 06:00:16;;;;;;;6.10;4.90;;;;;;;25.54;53.64;100442.95;117397;1186;24157;-55
2022/06/26 06:02:43;;;;;;;9.60;4.40;;;;;;;25.59;53.57;100446.23;117384;1185;21855;-56
2022/06/26 06:05:11;;;;;;;7.00;5.10;;;;;;;25.67;53.65;100444.36;117447;1185;22918;-54
2022/06/26 06:07:38;;;;;;;7.10;5.00;;;;;;;25.75;53.60;100445.38;117489;1185;22913;-55
2022/06/26 06:10:06;;;;;;;9.50;5.80;;;;;;;25.86;53.50;100439.52;117382;1185;22892;-56
2022/06/26 06:12:33;;;;;;;11.40;5.20;;;;;;;26.01;53.50;100433.38;117420;1184;21844;-55
2022/06/26 06:15:00;;;;;;;8.10;5.20;;;;;;;26.14;53.36;100435.75;117444;1184;23617;-55
2022/06/26 06:17:36;;;;;;;11.50;6.80;;;;;;;26.30;53.35;100435.66;117371;1182;21849;-55
2022/06/26 06:20:06;;;;;;;7.20;5.20;;;;;;;26.52;53.45;100437.36;117505;1185;23459;-55
2022/06/26 06:22:33;;;;;;;20.10;9.70;;;;;;;26.75;53.35;100441.89;117458;1182;22901;-55
2022/06/26 06:25:00;;;;;;;24.50;9.50;;;;;;;26.97;53.37;100442.13;117256;1186;23541;-55
2022/06/26 06:27:35;;;;;;;41.40;14.30;;;;;;;27.20;53.11;100446.04;117360;1184;21852;-56
2022/06/26 06:30:04;;;;;;;16.40;8.00;;;;;;;27.45;52.95;100441.46;117368;1186;23305;-56
2022/06/26 06:32:31;;;;;;;9.70;5.90;;;;;;;27.70;52.74;100437.85;117420;1180;23619;-55
2022/06/26 06:34:58;;;;;;;13.70;7.00;;;;;;;27.82;52.30;100430.85;117384;1186;21847;-55
2022/06/26 06:37:32;;;;;;;19.20;7.90;;;;;;;27.97;52.45;100427.27;117335;1182;23613;-55
2022/06/26 06:39:59;;;;;;;9.20;5.30;;;;;;;28.21;52.42;100428.15;117508;1186;21850;-55
2022/06/26 06:42:27;;;;;;;9.20;5.50;;;;;;;28.45;51.97;100428.83;117386;1185;21845;-55
2022/06/26 06:44:55;;;;;;;7.70;5.10;;;;;;;28.73;51.84;100429.80;117585;1182;21850;-53
2022/06/26 06:47:22;;;;;;;5.60;4.60;;;;;;;29.06;51.62;100431.39;117360;1179;21843;-54
2022/06/26 06:49:49;;;;;;;11.30;6.40;;;;;;;29.29;51.01;100433.02;117321;1185;23569;-54
2022/06/26 06:52:16;;;;;;;8.00;4.80;;;;;;;29.37;50.46;100434.27;117388;1182;22103;-56
2022/06/26 06:54:43;;;;;;;6.40;4.70;;;;;;;29.42;50.46;100436.02;117334;1185;21852;-54
2022/06/26 06:57:10;;;;;;;10.40;5.60;;;;;;;29.40;50.17;100436.69;117428;1186;22635;-54
2022/06/26 06:59:37;;;;;;;8.80;5.30;;;;;;;29.42;50.18;100438.00;117358;1182;23621;-55
2022/06/26 07:02:04;;;;;;;6.30;4.80;;;;;;;29.44;50.00;100436.94;117305;1182;22966;-55
2022/06/26 07:04:31;;;;;;;8.30;4.90;;;;;;;29.42;49.78;100437.65;117510;1186;23028;-55
2022/06/26 07:06:58;;;;;;;7.00;4.30;;;;;;;29.36;49.81;100443.36;117409;1187;21855;-55
2022/06/26 07:09:25;;;;;;;16.90;8.00;;;;;;;29.33;49.93;100440.59;117404;1186;21843;-55
2022/06/26 07:11:52;;;;;;;10.20;5.40;;;;;;;29.39;49.94;100440.43;117379;1182;23445;-54
2022/06/26 07:14:23;;;;;;;10.20;5.60;;;;;;;29.46;49.81;100442.69;117402;1182;23864;-54
2022/06/26 07:16:51;;;;;;;10.00;5.50;;;;;;;29.54;49.87;100446.48;117476;1180;22820;-56
2022/06/26 07:19:18;;;;;;;9.90;6.00;;;;;;;29.60;49.60;100448.06;117445;1184;22914;-56
2022/06/26 07:21:45;;;;;;;6.60;5.00;;;;;;;29.69;49.44;100453.78;117314;1184;21843;-55
2022/06/26 07:24:12;;;;;;;8.40;4.70;;;;;;;29.76;49.33;100452.45;117369;1184;21893;-54
2022/06/26 07:26:39;;;;;;;5.70;4.80;;;;;;;29.80;49.21;100446.81;117427;1182;23439;-55
2022/06/26 07:29:09;;;;;;;7.60;4.50;;;;;;;29.83;49.20;100452.45;117383;1185;22918;-55
2022/06/26 07:31:36;;;;;;;8.50;4.80;;;;;;;29.92;49.25;100449.65;117310;1183;23585;-54
2022/06/26 07:34:12;;;;;;;9.50;4.80;;;;;;;30.09;49.05;100448.80;117297;1185;21813;-55
2022/06/26 07:36:40;;;;;;;5.90;4.60;;;;;;;30.22;48.59;100448.57;117323;1185;23617;-54
2022/06/26 07:39:07;;;;;;;7.20;4.70;;;;;;;30.23;48.38;100452.39;117398;1182;23060;-56
2022/06/26 07:41:34;;;;;;;5.30;4.20;;;;;;;30.37;49.06;100449.13;117407;1184;23547;-56
2022/06/26 07:44:01;;;;;;;5.60;4.40;;;;;;;30.57;54.58;100455.39;117318;1184;21855;-54
2022/06/26 07:46:29;;;;;;;5.30;4.50;;;;;;;30.72;61.39;100455.04;117283;1184;23534;-55
2022/06/26 07:48:57;;;;;;;5.40;4.20;;;;;;;31.15;61.25;100454.21;117370;1186;23544;-54
2022/06/26 07:51:24;;;;;;;5.70;4.00;;;;;;;31.08;65.25;100459.89;117373;1185;23512;-56
2022/06/26 07:53:51;;;;;;;5.50;4.00;;;;;;;31.22;67.23;100458.93;117402;1185;22604;-55
2022/06/26 07:56:19;;;;;;;5.20;4.20;;;;;;;31.35;64.06;100458.80;117393;1185;21948;-55
2022/06/26 07:58:46;;;;;;;5.90;4.10;;;;;;;31.57;60.62;100461.66;117312;1183;23636;-54
2022/06/26 08:01:13;;;;;;;19.00;4.70;;;;;;;31.72;59.34;100463.05;117382;1185;23551;-56
2022/06/26 08:03:44;;;;;;;15.30;4.10;;;;;;;31.71;60.56;100467.38;117335;1185;23018;-55
2022/06/26 08:06:12;;;;;;;43.70;6.00;;;;;;;31.69;60.69;100465.37;117402;1184;22105;-55
2022/06/26 08:08:39;;;;;;;8.40;4.10;;;;;;;31.66;57.42;100462.80;117389;1188;23541;-55
2022/06/26 08:11:05;;;;;;;11.50;4.10;;;;;;;31.71;56.12;100463.91;117433;1182;22004;-56
2022/06/26 08:13:33;;;;;;;9.40;4.10;;;;;;;31.77;55.18;100462.60;117334;1187;22333;-55
2022/06/26 08:16:00;;;;;;;11.30;4.20;;;;;;;31.91;63.22;100466.45;117305;1185;24220;-56
2022/06/26 08:18:27;;;;;;;6.90;3.90;;;;;;;32.16;63.71;100466.05;117448;1184;22886;-56
2022/06/26 08:20:54;;;;;;;6.00;4.10;;;;;;;32.64;61.91;100464.94;117332;1186;23518;-56
2022/06/26 08:23:21;;;;;;;10.50;3.90;;;;;;;32.65;67.06;100467.59;117386;1182;22915;-55
2022/06/26 08:25:49;;;;;;;5.40;4.30;;;;;;;32.39;76.19;100469.92;117218;1184;21859;-54
2022/06/26 08:28:16;;;;;;;5.50;4.00;;;;;;;32.48;74.63;100463.78;117327;1186;23540;-55
2022/06/26 08:30:43;;;;;;;6.70;4.50;;;;;;;32.58;72.42;100463.20;117364;1184;23541;-55
2022/06/26 08:33:11;;;;;;;6.00;4.00;;;;;;;32.49;73.34;100465.98;117401;1185;23435;-55
2022/06/26 08:35:38;;;;;;;7.40;3.90;;;;;;;32.40;66.81;100461.70;117371;1186;23563;-55
2022/06/26 08:38:05;;;;;;;8.50;4.20;;;;;;;32.36;67.86;100459.59;117392;1185;22756;-55
2022/06/26 08:40:32;;;;;;;5.20;4.00;;;;;;;32.31;69.81;100464.62;117335;1182;21873;-55
2022/06/26 08:42:59;;;;;;;5.10;3.90;;;;;;;32.23;69.42;100463.33;117398;1186;23544;-54
2022/06/26 08:45:26;;;;;;;8.60;4.50;;;;;;;32.20;65.47;100461.90;117212;1186;23265;-55
2022/06/26 08:47:53;;;;;;;5.90;4.10;;;;;;;32.01;61.07;100465.38;117098;1185;22665;-54
2022/06/26 08:50:22;;;;;;;7.30;4.30;;;;;;;31.95;58.96;100464.22;117323;1186;22908;-55
2022/06/26 08:52:51;;;;;;;6.60;4.30;;;;;;;31.97;57.25;100463.11;117393;1186;22985;-54
2022/06/26 08:55:19;;;;;;;6.90;4.50;;;;;;;32.19;69.65;100467.06;117396;1182;22642;-55
2022/06/26 08:57:49;;;;;;;6.60;4.40;;;;;;;32.27;75.82;100470.64;117343;1185;25223;-55
2022/06/26 09:00:16;;;;;;;7.70;4.70;;;;;;;32.47;74.40;100461.83;117540;1184;22716;-56
2022/06/26 09:02:44;;;;;;;5.70;4.20;;;;;;;32.96;72.32;100461.51;117463;1185;23173;-56
2022/06/26 09:05:12;;;;;;;5.00;3.70;;;;;;;33.24;67.25;100464.29;117424;1184;23583;-56
2022/06/26 09:07:46;;;;;;;7.50;3.80;;;;;;;33.74;65.20;100466.94;117472;1183;22918;-55
2022/06/26 09:10:17;;;;;;;7.40;4.30;;;;;;;33.48;61.72;100466.88;117428;1186;21852;-56
2022/06/26 09:12:55;;;;;;;6.20;3.90;;;;;;;33.31;58.96;100462.11;117299;1185;24239;-57
2022/06/26 09:15:22;;;;;;;4.30;3.80;;;;;;;33.42;57.58;100460.84;117418;1185;24172;-57
2022/06/26 09:18:01;;;;;;;5.80;4.10;;;;;;;33.42;56.53;100460.43;117388;1185;24817;-56
2022/06/26 09:20:30;;;;;;;6.70;4.20;;;;;;;33.31;55.56;100457.63;117513;1183;22932;-55
2022/06/26 09:22:59;;;;;;;4.50;3.50;;;;;;;33.20;54.60;100456.77;117459;1182;23709;-57
2022/06/26 09:25:52;;;;;;;4.30;3.40;;;;;;;33.10;53.89;100457.08;117390;1184;21852;-56
2022/06/26 09:28:21;;;;;;;6.90;3.50;;;;;;;32.92;53.30;100456.59;117408;1185;23631;-56
2022/06/26 09:30:56;;;;;;;4.90;3.10;;;;;;;32.76;52.85;100459.92;117448;1182;21988;-56
2022/06/26 09:33:28;;;;;;;6.40;3.30;;;;;;;32.57;52.63;100460.50;117436;1185;21859;-56
2022/06/26 09:35:55;;;;;;;6.30;3.30;;;;;;;32.44;52.82;100463.94;117477;1186;22725;-56
2022/06/26 09:38:27;;;;;;;6.90;3.50;;;;;;;32.38;52.23;100468.23;117416;1186;22926;-56
2022/06/26 09:41:02;;;;;;;4.10;3.40;;;;;;;32.35;51.87;100464.77;117505;1183;24156;-56
2022/06/26 09:43:30;;;;;;;8.00;3.90;;;;;;;32.40;52.22;100465.10;117451;1185;22895;-56
2022/06/26 09:46:01;;;;;;;5.50;3.30;;;;;;;32.65;51.66;100465.11;117435;1185;22614;-56
2022/06/26 09:48:29;;;;;;;4.50;3.60;;;;;;;32.86;51.11;100461.25;117412;1185;22612;-56
2022/06/26 09:50:57;;;;;;;4.90;3.50;;;;;;;33.11;51.07;100455.20;117436;1182;24146;-56
2022/06/26 09:53:25;;;;;;;6.20;3.60;;;;;;;33.39;50.67;100452.53;117473;1186;21968;-56
2022/06/26 09:55:53;;;;;;;4.80;3.30;;;;;;;33.77;50.30;100447.02;117422;1185;22649;-55
2022/06/26 09:58:22;;;;;;;5.00;3.80;;;;;;;34.20;49.66;100451.44;117499;1185;22903;-56
2022/06/26 10:06:26;;;;;;;4.50;3.00;;;;;;;35.39;47.62;100453.73;117418;1186;21819;-54
2022/06/26 10:08:58;;;;;;;5.60;4.00;;;;;;;35.39;47.27;100456.02;117451;1186;23619;-55
2022/06/26 10:11:31;;;;;;;11.80;3.90;;;;;;;35.29;47.38;100460.22;117325;1186;21853;-56
2022/06/26 10:14:11;;;;;;;4.50;3.50;;;;;;;35.26;46.83;100457.42;117377;1185;23466;-56
2022/06/26 10:17:01;;;;;;;5.80;3.70;;;;;;;35.17;46.74;100454.67;117447;1184;23634;-55
2022/06/26 10:19:37;;;;;;;5.10;3.60;;;;;;;34.95;46.79;100454.04;117386;1186;21999;-55
2022/06/26 10:22:04;;;;;;;4.60;3.40;;;;;;;34.84;46.43;100451.14;117424;1182;23537;-55
2022/06/26 10:24:32;;;;;;;4.30;3.00;;;;;;;34.75;45.81;100453.29;117294;1186;22912;-55
2022/06/26 10:27:01;;;;;;;4.90;3.20;;;;;;;34.66;46.53;100460.58;117401;1185;21856;-55
2022/06/26 10:29:35;;;;;;;4.80;3.20;;;;;;;34.61;46.38;100457.80;117460;1185;22812;-55
2022/06/26 10:32:03;;;;;;;6.50;3.40;;;;;;;34.69;45.88;100460.68;117437;1185;21840;-55
2022/06/26 10:34:31;;;;;;;4.60;3.10;;;;;;;34.67;45.62;100460.39;117383;1186;21860;-55
2022/06/26 10:37:06;;;;;;;3.80;3.30;;;;;;;34.59;45.41;100457.61;117481;1183;23537;-56
2022/06/26 10:39:42;;;;;;;4.20;3.60;;;;;;;34.46;45.58;100453.56;117391;1185;22030;-54
2022/06/26 10:42:56;;;;;;;4.50;3.20;;;;;;;34.36;45.26;100448.92;117345;1184;23569;-56
2022/06/26 10:45:12;;;;;;;5.10;3.50;;;;;;;34.21;45.38;100447.58;117303;1184;22750;-55
2022/06/26 10:47:39;;;;;;;4.90;3.60;;;;;;;34.33;45.66;100449.54;117443;1185;22906;-56
2022/06/26 10:50:30;;;;;;;3.90;3.30;;;;;;;34.60;45.60;100451.66;117358;1186;22983;-56
2022/06/26 10:53:22;;;;;;;5.10;3.40;;;;;;;34.83;45.44;100453.05;117402;1185;21889;-56
2022/06/26 10:56:05;;;;;;;4.60;3.00;;;;;;;35.11;45.05;100450.08;117258;1186;23563;-56
2022/06/26 10:58:35;;;;;;;5.30;2.80;;;;;;;35.44;45.08;100448.84;117496;1186;23025;-56
2022/06/26 11:01:06;;;;;;;4.90;3.40;;;;;;;35.91;44.65;100444.00;117437;1184;21847;-56
2022/06/26 11:03:34;;;;;;;4.80;3.70;;;;;;;36.31;44.28;100444.08;117414;1186;21848;-56
2022/06/26 11:06:03;;;;;;;4.40;2.90;;;;;;;36.66;43.80;100443.72;117377;1185;21914;-56
2022/06/26 11:08:35;;;;;;;4.10;2.80;;;;;;;37.08;43.03;100445.10;117317;1185;21843;-56
2022/06/26 11:11:14;;;;;;;4.80;2.80;;;;;;;37.44;42.56;100449.08;117382;1184;21947;-54
2022/06/26 11:13:49;;;;;;;5.60;3.30;;;;;;;37.73;42.52;100448.95;117260;1185;22938;-56
2022/06/26 11:16:16;;;;;;;3.90;3.10;;;;;;;38.01;42.36;100448.24;117439;1185;22902;-55
2022/06/26 11:18:43;;;;;;;6.60;3.30;;;;;;;38.13;42.03;100447.51;117474;1187;21910;-55
2022/06/26 11:21:16;;;;;;;4.80;2.90;;;;;;;38.14;42.03;100443.71;117401;1186;21890;-55
2022/06/26 11:23:44;;;;;;;4.80;3.20;;;;;;;38.20;41.85;100448.03;117425;1185;22630;-55
2022/06/26 11:26:13;;;;;;;4.00;2.60;;;;;;;38.30;41.44;100447.67;117499;1185;22775;-56
2022/06/26 11:28:42;;;;;;;4.10;2.40;;;;;;;38.38;40.49;100442.27;117447;1182;22642;-55
2022/06/26 11:31:13;;;;;;;3.00;2.60;;;;;;;38.41;40.34;100437.88;117415;1185;22796;-56